sensor_id;sensor_type;location;lat;lon;timestamp;pressure;altitude;pressure_sealevel;temperature
15360;BMP280;7779;49.596;11.070;2023-05-01T00:00:13;98377.41;;;13.41
15360;BMP280;7779;49.596;11.070;2023-05-01T00:02:42;98369.03;;;13.42
15360;BMP280;7779;49.596;11.070;2023-05-01T00:05:08;98366.59;;;13.43
15360;BMP280;7779;49.596;11.070;2023-05-01T00:07:34;98371.84;;;13.48
15360;BMP280;7779;49.596;11.070;2023-05-01T00:10:00;98360.28;;;13.51
15360;BMP280;7779;49.596;11.070;2023-05-01T00:12:25;98361.97;;;13.52
15360;BMP280;7779;49.596;11.070;2023-05-01T00:14:53;98362.22;;;13.58
15360;BMP280;7779;49.596;11.070;2023-05-01T00:17:19;98358.09;;;13.59
15360;BMP280;7779;49.596;11.070;2023-05-01T00:19:51;98356.50;;;13.61
15360;BMP280;7779;49.596;11.070;2023-05-01T00:22:17;98355.75;;;13.63
15360;BMP280;7779;49.596;11.070;2023-05-01T00:24:43;98350.78;;;13.65
15360;BMP280;7779;49.596;11.070;2023-05-01T00:27:09;98352.53;;;13.66
15360;BMP280;7779;49.596;11.070;2023-05-01T00:29:35;98344.16;;;13.66
15360;BMP280;7779;49.596;11.070;2023-05-01T00:32:01;98343.41;;;13.67
15360;BMP280;7779;49.596;11.070;2023-05-01T00:34:26;98333.31;;;13.67
15360;BMP280;7779;49.596;11.070;2023-05-01T00:36:52;98335.03;;;13.68
15360;BMP280;7779;49.596;11.070;2023-05-01T00:39:18;98331.72;;;13.69
15360;BMP280;7779;49.596;11.070;2023-05-01T00:41:44;98324.19;;;13.69
15360;BMP280;7779;49.596;11.070;2023-05-01T00:44:09;98316.63;;;13.69
15360;BMP280;7779;49.596;11.070;2023-05-01T00:46:35;98322.50;;;13.70
15360;BMP280;7779;49.596;11.070;2023-05-01T00:49:03;98322.44;;;13.68
15360;BMP280;7779;49.596;11.070;2023-05-01T00:51:30;98318.22;;;13.67
15360;BMP280;7779;49.596;11.070;2023-05-01T00:53:58;98313.88;;;13.65
15360;BMP280;7779;49.596;11.070;2023-05-01T00:56:24;98316.34;;;13.64
15360;BMP280;7779;49.596;11.070;2023-05-01T00:58:50;98310.38;;;13.62
15360;BMP280;7779;49.596;11.070;2023-05-01T01:01:21;98316.22;;;13.61
15360;BMP280;7779;49.596;11.070;2023-05-01T01:03:48;98300.97;;;13.58
15360;BMP280;7779;49.596;11.070;2023-05-01T01:06:33;98300.13;;;13.57
15360;BMP280;7779;49.596;11.070;2023-05-01T01:09:17;98299.13;;;13.54
15360;BMP280;7779;49.596;11.070;2023-05-01T01:12:05;98300.72;;;13.52
15360;BMP280;7779;49.596;11.070;2023-05-01T01:15:06;98300.56;;;13.49
15360;BMP280;7779;49.596;11.070;2023-05-01T01:17:51;98292.09;;;13.47
15360;BMP280;7779;49.596;11.070;2023-05-01T01:20:43;98291.16;;;13.45
15360;BMP280;7779;49.596;11.070;2023-05-01T01:23:39;98290.19;;;13.41
15360;BMP280;7779;49.596;11.070;2023-05-01T01:26:32;98285.81;;;13.37
15360;BMP280;7779;49.596;11.070;2023-05-01T01:32:43;98290.44;;;13.28
15360;BMP280;7779;49.596;11.070;2023-05-01T01:35:20;98292.88;;;13.27
15360;BMP280;7779;49.596;11.070;2023-05-01T01:38:06;98287.69;;;13.24
15360;BMP280;7779;49.596;11.070;2023-05-01T01:40:58;98275.06;;;13.23
15360;BMP280;7779;49.596;11.070;2023-05-01T01:43:29;98283.41;;;13.22
15360;BMP280;7779;49.596;11.070;2023-05-01T01:46:04;98281.69;;;13.21
15360;BMP280;7779;49.596;11.070;2023-05-01T01:48:36;98279.94;;;13.20
15360;BMP280;7779;49.596;11.070;2023-05-01T01:51:12;98283.25;;;13.19
15360;BMP280;7779;49.596;11.070;2023-05-01T01:53:44;98281.47;;;13.16
15360;BMP280;7779;49.596;11.070;2023-05-01T01:56:13;98270.47;;;13.14
15360;BMP280;7779;49.596;11.070;2023-05-01T01:58:41;98276.25;;;13.12
15360;BMP280;7779;49.596;11.070;2023-05-01T02:01:08;98266.97;;;13.11
15360;BMP280;7779;49.596;11.070;2023-05-01T02:03:36;98275.31;;;13.10
15360;BMP280;7779;49.596;11.070;2023-05-01T02:06:04;98264.31;;;13.08
15360;BMP280;7779;49.596;11.070;2023-05-01T02:08:31;98268.47;;;13.07
15360;BMP280;7779;49.596;11.070;2023-05-01T02:11:00;98268.38;;;13.04
15360;BMP280;7779;49.596;11.070;2023-05-01T02:13:29;98264.97;;;13.04
15360;BMP280;7779;49.596;11.070;2023-05-01T02:15:58;98262.38;;;13.02
15360;BMP280;7779;49.596;11.070;2023-05-01T02:18:29;98256.41;;;13.00
15360;BMP280;7779;49.596;11.070;2023-05-01T02:20:58;98254.72;;;12.99
15360;BMP280;7779;49.596;11.070;2023-05-01T02:23:26;98247.09;;;12.98
15360;BMP280;7779;49.596;11.070;2023-05-01T02:25:55;98249.53;;;12.96
15360;BMP280;7779;49.596;11.070;2023-05-01T02:28:26;98242.81;;;12.95
15360;BMP280;7779;49.596;11.070;2023-05-01T02:30:53;98244.34;;;12.93
15360;BMP280;7779;49.596;11.070;2023-05-01T02:33:19;98239.31;;;12.93
15360;BMP280;7779;49.596;11.070;2023-05-01T02:35:45;98238.41;;;12.91
15360;BMP280;7779;49.596;11.070;2023-05-01T02:38:17;98238.34;;;12.90
15360;BMP280;7779;49.596;11.070;2023-05-01T02:40:48;98233.25;;;12.88
15360;BMP280;7779;49.596;11.070;2023-05-01T02:43:19;98233.19;;;12.87
15360;BMP280;7779;49.596;11.070;2023-05-01T02:45:48;98226.38;;;12.85
15360;BMP280;7779;49.596;11.070;2023-05-01T02:48:26;98233.91;;;12.85
15360;BMP280;7779;49.596;11.070;2023-05-01T02:50:53;98235.47;;;12.83
15360;BMP280;7779;49.596;11.070;2023-05-01T02:53:21;98227.81;;;12.80
15360;BMP280;7779;49.596;11.070;2023-05-01T02:55:55;98231.06;;;12.79
15360;BMP280;7779;49.596;11.070;2023-05-01T02:58:21;98227.56;;;12.75
15360;BMP280;7779;49.596;11.070;2023-05-01T03:00:50;98233.38;;;12.74
15360;BMP280;7779;49.596;11.070;2023-05-01T03:03:16;98233.31;;;12.73
15360;BMP280;7779;49.596;11.070;2023-05-01T03:05:42;98233.97;;;12.69
15360;BMP280;7779;49.596;11.070;2023-05-01T03:08:08;98233.03;;;12.67
15360;BMP280;7779;49.596;11.070;2023-05-01T03:10:35;98236.25;;;12.64
15360;BMP280;7779;49.596;11.070;2023-05-01T03:13:00;98235.31;;;12.62
15360;BMP280;7779;49.596;11.070;2023-05-01T03:15:26;98233.47;;;12.58
15360;BMP280;7779;49.596;11.070;2023-05-01T03:17:52;98234.19;;;12.56
15360;BMP280;7779;49.596;11.070;2023-05-01T03:20:18;98229.03;;;12.53
15360;BMP280;7779;49.596;11.070;2023-05-01T03:22:43;98232.25;;;12.50
15360;BMP280;7779;49.596;11.070;2023-05-01T03:25:09;98228.75;;;12.47
15360;BMP280;7779;49.596;11.070;2023-05-01T03:27:36;98222.72;;;12.44
15360;BMP280;7779;49.596;11.070;2023-05-01T03:30:02;98223.41;;;12.41
15360;BMP280;7779;49.596;11.070;2023-05-01T03:32:32;98229.16;;;12.39
15360;BMP280;7779;49.596;11.070;2023-05-01T03:34:58;98222.38;;;12.36
15360;BMP280;7779;49.596;11.070;2023-05-01T03:37:24;98223.88;;;12.33
15360;BMP280;7779;49.596;11.070;2023-05-01T03:39:51;98221.28;;;12.31
15360;BMP280;7779;49.596;11.070;2023-05-01T03:42:16;98221.13;;;12.28
15360;BMP280;7779;49.596;11.070;2023-05-01T03:44:43;98214.31;;;12.26
15360;BMP280;7779;49.596;11.070;2023-05-01T03:47:09;98207.47;;;12.23
15360;BMP280;7779;49.596;11.070;2023-05-01T03:49:39;98209.94;;;12.22
15360;BMP280;7779;49.596;11.070;2023-05-01T03:52:05;98209.84;;;12.20
15360;BMP280;7779;49.596;11.070;2023-05-01T03:54:32;98217.31;;;12.19
15360;BMP280;7779;49.596;11.070;2023-05-01T03:57:11;98205.50;;;12.16
15360;BMP280;7779;49.596;11.070;2023-05-01T03:59:37;98202.03;;;12.14
15360;BMP280;7779;49.596;11.070;2023-05-01T04:02:03;98200.31;;;12.13
15360;BMP280;7779;49.596;11.070;2023-05-01T04:04:32;98210.34;;;12.13
15360;BMP280;7779;49.596;11.070;2023-05-01T04:06:57;98207.84;;;12.13
15360;BMP280;7779;49.596;11.070;2023-05-01T04:09:23;98212.94;;;12.15
15360;BMP280;7779;49.596;11.070;2023-05-01T04:11:49;98210.50;;;12.16
15360;BMP280;7779;49.596;11.070;2023-05-01T04:14:15;98205.59;;;12.19
15360;BMP280;7779;49.596;11.070;2023-05-01T04:16:41;98206.50;;;12.20
15360;BMP280;7779;49.596;11.070;2023-05-01T04:19:07;98200.75;;;12.22
15360;BMP280;7779;49.596;11.070;2023-05-01T04:21:36;98200.81;;;12.24
15360;BMP280;7779;49.596;11.070;2023-05-01T04:24:02;98205.13;;;12.26
15360;BMP280;7779;49.596;11.070;2023-05-01T04:26:28;98198.50;;;12.28
15360;BMP280;7779;49.596;11.070;2023-05-01T04:28:54;98201.25;;;12.33
15360;BMP280;7779;49.596;11.070;2023-05-01T04:31:23;98198.81;;;12.34
15360;BMP280;7779;49.596;11.070;2023-05-01T04:33:48;98198.16;;;12.38
15360;BMP280;7779;49.596;11.070;2023-05-01T04:36:14;98197.44;;;12.41
15360;BMP280;7779;49.596;11.070;2023-05-01T04:38:41;98198.59;;;12.47
15360;BMP280;7779;49.596;11.070;2023-05-01T04:41:07;98187.81;;;12.49
15360;BMP280;7779;49.596;11.070;2023-05-01T04:43:33;98182.19;;;12.55
15360;BMP280;7779;49.596;11.070;2023-05-01T04:45:59;98189.22;;;12.62
15360;BMP280;7779;49.596;11.070;2023-05-01T04:48:25;98191.25;;;12.69
15360;BMP280;7779;49.596;11.070;2023-05-01T04:50:50;98194.09;;;12.76
15360;BMP280;7779;49.596;11.070;2023-05-01T04:53:16;98192.09;;;12.87
15360;BMP280;7779;49.596;11.070;2023-05-01T04:55:42;98194.28;;;12.98
15360;BMP280;7779;49.596;11.070;2023-05-01T04:58:12;98192.25;;;13.08
15360;BMP280;7779;49.596;11.070;2023-05-01T05:00:38;98196.16;;;13.21
15360;BMP280;7779;49.596;11.070;2023-05-01T05:03:06;98198.41;;;13.33
15360;BMP280;7779;49.596;11.070;2023-05-01T05:05:32;98198.06;;;13.45
15360;BMP280;7779;49.596;11.070;2023-05-01T05:07:59;98196.06;;;13.57
15360;BMP280;7779;49.596;11.070;2023-05-01T05:10:24;98192.44;;;13.70
15360;BMP280;7779;49.596;11.070;2023-05-01T05:13:06;98191.50;;;13.87
15360;BMP280;7779;49.596;11.070;2023-05-01T05:15:32;98181.22;;;14.02
15360;BMP280;7779;49.596;11.070;2023-05-01T05:17:57;98190.16;;;14.15
15360;BMP280;7779;49.596;11.070;2023-05-01T05:20:23;98179.81;;;14.30
15360;BMP280;7779;49.596;11.070;2023-05-01T05:22:49;98189.72;;;14.45
15360;BMP280;7779;49.596;11.070;2023-05-01T05:25:20;98180.13;;;14.59
15360;BMP280;7779;49.596;11.070;2023-05-01T05:27:46;98186.69;;;14.76
15360;BMP280;7779;49.596;11.070;2023-05-01T05:30:12;98185.56;;;14.91
15360;BMP280;7779;49.596;11.070;2023-05-01T05:32:38;98185.34;;;15.07
15360;BMP280;7779;49.596;11.070;2023-05-01T05:35:04;98179.16;;;15.21
15360;BMP280;7779;49.596;11.070;2023-05-01T05:37:31;98172.13;;;15.35
15360;BMP280;7779;49.596;11.070;2023-05-01T05:39:57;98179.38;;;15.50
15360;BMP280;7779;49.596;11.070;2023-05-01T05:42:23;98169.72;;;15.63
15360;BMP280;7779;49.596;11.070;2023-05-01T05:44:49;98173.56;;;15.77
15360;BMP280;7779;49.596;11.070;2023-05-01T05:47:15;98177.31;;;15.88
15360;BMP280;7779;49.596;11.070;2023-05-01T05:49:41;98168.28;;;15.94
15360;BMP280;7779;49.596;11.070;2023-05-01T05:52:07;98164.44;;;16.05
15360;BMP280;7779;49.596;11.070;2023-05-01T05:54:35;98156.38;;;16.16
15360;BMP280;7779;49.596;11.070;2023-05-01T05:57:01;98162.66;;;16.27
15360;BMP280;7779;49.596;11.070;2023-05-01T05:59:28;98153.72;;;16.38
15360;BMP280;7779;49.596;11.070;2023-05-01T06:01:54;98154.84;;;16.47
15360;BMP280;7779;49.596;11.070;2023-05-01T06:04:20;98153.44;;;16.55
15360;BMP280;7779;49.596;11.070;2023-05-01T06:06:46;98145.22;;;16.64
15360;BMP280;7779;49.596;11.070;2023-05-01T06:09:12;98142.28;;;16.78
15360;BMP280;7779;49.596;11.070;2023-05-01T06:11:39;98147.03;;;16.95
15360;BMP280;7779;49.596;11.070;2023-05-01T06:14:05;98144.13;;;17.11
15360;BMP280;7779;49.596;11.070;2023-05-01T06:16:32;98142.78;;;17.22
15360;BMP280;7779;49.596;11.070;2023-05-01T06:18:58;98134.50;;;17.29
15360;BMP280;7779;49.596;11.070;2023-05-01T06:21:24;98134.53;;;17.30
15360;BMP280;7779;49.596;11.070;2023-05-01T06:23:50;98128.78;;;17.34
15360;BMP280;7779;49.596;11.070;2023-05-01T06:26:22;98128.06;;;17.40
15360;BMP280;7779;49.596;11.070;2023-05-01T06:28:48;98124.78;;;17.44
15360;BMP280;7779;49.596;11.070;2023-05-01T06:31:14;98129.13;;;17.48
15360;BMP280;7779;49.596;11.070;2023-05-01T06:33:46;98137.66;;;17.51
15360;BMP280;7779;49.596;11.070;2023-05-01T06:36:40;98125.84;;;17.52
15360;BMP280;7779;49.596;11.070;2023-05-01T06:39:06;98132.66;;;17.54
15360;BMP280;7779;49.596;11.070;2023-05-01T06:41:33;98120.03;;;17.56
15360;BMP280;7779;49.596;11.070;2023-05-01T06:43:59;98119.19;;;17.55
15360;BMP280;7779;49.596;11.070;2023-05-01T06:46:25;98125.09;;;17.56
15360;BMP280;7779;49.596;11.070;2023-05-01T06:48:51;98128.59;;;17.60
15360;BMP280;7779;49.596;11.070;2023-05-01T06:51:17;98113.56;;;17.66
15360;BMP280;7779;49.596;11.070;2023-05-01T06:53:44;98116.25;;;17.72
15360;BMP280;7779;49.596;11.070;2023-05-01T06:56:10;98112.22;;;17.80
15360;BMP280;7779;49.596;11.070;2023-05-01T06:58:36;98110.91;;;17.94
15360;BMP280;7779;49.596;11.070;2023-05-01T07:01:01;98111.31;;;18.10
15360;BMP280;7779;49.596;11.070;2023-05-01T07:03:27;98108.28;;;18.25
15360;BMP280;7779;49.596;11.070;2023-05-01T07:05:53;98106.88;;;18.38
15360;BMP280;7779;49.596;11.070;2023-05-01T07:08:19;98107.97;;;18.48
15360;BMP280;7779;49.596;11.070;2023-05-01T07:10:46;98112.41;;;18.58
15360;BMP280;7779;49.596;11.070;2023-05-01T07:13:12;98121.91;;;18.66
15360;BMP280;7779;49.596;11.070;2023-05-01T07:15:37;98117.03;;;18.75
15360;BMP280;7779;49.596;11.070;2023-05-01T07:18:03;98121.41;;;18.82
15360;BMP280;7779;49.596;11.070;2023-05-01T07:20:33;98126.63;;;18.89
15360;BMP280;7779;49.596;11.070;2023-05-01T07:23:01;98120.84;;;18.96
15360;BMP280;7779;49.596;11.070;2023-05-01T07:25:28;98111.69;;;19.03
15360;BMP280;7779;49.596;11.070;2023-05-01T07:27:54;98105.06;;;19.11
15360;BMP280;7779;49.596;11.070;2023-05-01T07:30:20;98100.19;;;19.21
15360;BMP280;7779;49.596;11.070;2023-05-01T07:32:45;98092.75;;;19.30
15360;BMP280;7779;49.596;11.070;2023-05-01T07:35:11;98097.19;;;19.40
15360;BMP280;7779;49.596;11.070;2023-05-01T07:37:37;98093.13;;;19.49
15360;BMP280;7779;49.596;11.070;2023-05-01T07:40:04;98090.75;;;19.58
15360;BMP280;7779;49.596;11.070;2023-05-01T07:42:30;98082.44;;;19.68
15360;BMP280;7779;49.596;11.070;2023-05-01T07:44:55;98084.25;;;19.75
15360;BMP280;7779;49.596;11.070;2023-05-01T07:47:21;98079.34;;;19.84
15360;BMP280;7779;49.596;11.070;2023-05-01T07:49:47;98077.78;;;19.90
15360;BMP280;7779;49.596;11.070;2023-05-01T07:52:13;98070.19;;;19.95
15360;BMP280;7779;49.596;11.070;2023-05-01T07:54:40;98066.88;;;19.97
15360;BMP280;7779;49.596;11.070;2023-05-01T07:57:06;98065.19;;;20.00
15360;BMP280;7779;49.596;11.070;2023-05-01T07:59:32;98062.72;;;20.03
15360;BMP280;7779;49.596;11.070;2023-05-01T08:01:57;98061.13;;;20.10
15360;BMP280;7779;49.596;11.070;2023-05-01T08:04:23;98068.88;;;20.17
15360;BMP280;7779;49.596;11.070;2023-05-01T08:06:49;98062.19;;;20.25
15360;BMP280;7779;49.596;11.070;2023-05-01T08:09:16;98057.19;;;20.33
15360;BMP280;7779;49.596;11.070;2023-05-01T08:11:42;98058.16;;;20.42
15360;BMP280;7779;49.596;11.070;2023-05-01T08:14:07;98048.13;;;20.51
15360;BMP280;7779;49.596;11.070;2023-05-01T08:16:34;98049.91;;;20.58
15360;BMP280;7779;49.596;11.070;2023-05-01T08:19:00;98050.91;;;20.64
15360;BMP280;7779;49.596;11.070;2023-05-01T08:21:26;98038.22;;;20.69
15360;BMP280;7779;49.596;11.070;2023-05-01T08:23:54;98050.19;;;20.76
15360;BMP280;7779;49.596;11.070;2023-05-01T08:26:21;98040.03;;;20.78
15360;BMP280;7779;49.596;11.070;2023-05-01T08:28:46;98044.41;;;20.90
15360;BMP280;7779;49.596;11.070;2023-05-01T08:31:13;98038.56;;;20.98
15360;BMP280;7779;49.596;11.070;2023-05-01T08:33:39;98038.69;;;21.07
15360;BMP280;7779;49.596;11.070;2023-05-01T08:36:09;98037.03;;;21.14
15360;BMP280;7779;49.596;11.070;2023-05-01T08:38:36;98026.91;;;21.21
15360;BMP280;7779;49.596;11.070;2023-05-01T08:41:02;98027.00;;;21.30
15360;BMP280;7779;49.596;11.070;2023-05-01T08:43:31;98035.69;;;21.44
15360;BMP280;7779;49.596;11.070;2023-05-01T08:46:01;98029.81;;;21.52
15360;BMP280;7779;49.596;11.070;2023-05-01T08:48:31;98031.59;;;21.62
15360;BMP280;7779;49.596;11.070;2023-05-01T08:50:59;98036.75;;;21.69
15360;BMP280;7779;49.596;11.070;2023-05-01T08:53:27;98030.84;;;21.76
15360;BMP280;7779;49.596;11.070;2023-05-01T08:55:55;98036.88;;;21.83
15360;BMP280;7779;49.596;11.070;2023-05-01T08:58:24;98030.09;;;21.88
15360;BMP280;7779;49.596;11.070;2023-05-01T09:00:52;98025.88;;;21.91
15360;BMP280;7779;49.596;11.070;2023-05-01T09:03:19;98028.44;;;21.90
15360;BMP280;7779;49.596;11.070;2023-05-01T09:05:45;98019.03;;;21.87
15360;BMP280;7779;49.596;11.070;2023-05-01T09:08:11;98025.88;;;21.88
15360;BMP280;7779;49.596;11.070;2023-05-01T09:10:44;98024.19;;;21.92
15360;BMP280;7779;49.596;11.070;2023-05-01T09:13:10;98019.09;;;21.96
15360;BMP280;7779;49.596;11.070;2023-05-01T09:15:37;98025.13;;;22.05
15360;BMP280;7779;49.596;11.070;2023-05-01T09:18:03;98015.84;;;22.15
15360;BMP280;7779;49.596;11.070;2023-05-01T09:20:30;98021.00;;;22.24
15360;BMP280;7779;49.596;11.070;2023-05-01T09:22:56;98012.53;;;22.29
15360;BMP280;7779;49.596;11.070;2023-05-01T09:25:22;98015.94;;;22.33
15360;BMP280;7779;49.596;11.070;2023-05-01T09:27:48;98020.25;;;22.35
15360;BMP280;7779;49.596;11.070;2023-05-01T09:30:46;98029.63;;;22.39
15360;BMP280;7779;49.596;11.070;2023-05-01T09:33:14;98020.28;;;22.42
15360;BMP280;7779;49.596;11.070;2023-05-01T09:35:53;98020.31;;;22.45
15360;BMP280;7779;49.596;11.070;2023-05-01T09:38:28;98012.63;;;22.48
15360;BMP280;7779;49.596;11.070;2023-05-01T09:41:03;98019.47;;;22.55
15360;BMP280;7779;49.596;11.070;2023-05-01T09:43:29;98018.69;;;22.64
15360;BMP280;7779;49.596;11.070;2023-05-01T09:46:09;98016.16;;;22.74
15360;BMP280;7779;49.596;11.070;2023-05-01T09:48:37;98011.09;;;22.80
15360;BMP280;7779;49.596;11.070;2023-05-01T09:53:50;98015.34;;;22.85
15360;BMP280;7779;49.596;11.070;2023-05-01T09:56:17;98011.94;;;22.86
15360;BMP280;7779;49.596;11.070;2023-05-01T09:58:43;98017.91;;;22.85
15360;BMP280;7779;49.596;11.070;2023-05-01T10:01:09;98012.81;;;22.87
15360;BMP280;7779;49.596;11.070;2023-05-01T10:03:36;98013.69;;;22.89
15360;BMP280;7779;49.596;11.070;2023-05-01T10:06:01;98011.94;;;22.85
15360;BMP280;7779;49.596;11.070;2023-05-01T10:08:48;98009.34;;;22.79
15360;BMP280;7779;49.596;11.070;2023-05-01T10:11:15;98012.75;;;22.75
15360;BMP280;7779;49.596;11.070;2023-05-01T10:13:41;98005.94;;;22.74
15360;BMP280;7779;49.596;11.070;2023-05-01T10:16:26;98007.66;;;22.78
15360;BMP280;7779;49.596;11.070;2023-05-01T10:18:58;98008.53;;;22.86
15360;BMP280;7779;49.596;11.070;2023-05-01T10:21:24;98009.44;;;22.94
15360;BMP280;7779;49.596;11.070;2023-05-01T10:23:51;98006.06;;;23.01
15360;BMP280;7779;49.596;11.070;2023-05-01T10:26:17;98000.13;;;23.08
15360;BMP280;7779;49.596;11.070;2023-05-01T10:28:47;98009.47;;;23.12
15360;BMP280;7779;49.596;11.070;2023-05-01T10:31:14;98008.63;;;23.11
15360;BMP280;7779;49.596;11.070;2023-05-01T10:33:43;98008.63;;;23.10
15360;BMP280;7779;49.596;11.070;2023-05-01T10:36:30;98005.22;;;23.06
15360;BMP280;7779;49.596;11.070;2023-05-01T10:38:57;98011.16;;;23.01
15360;BMP280;7779;49.596;11.070;2023-05-01T10:44:32;98005.16;;;22.87
15360;BMP280;7779;49.596;11.070;2023-05-01T10:46:59;98004.28;;;22.82
15360;BMP280;7779;49.596;11.070;2023-05-01T10:50:05;97994.88;;;22.76
15360;BMP280;7779;49.596;11.070;2023-05-01T10:55:45;98005.03;;;22.60
15360;BMP280;7779;49.596;11.070;2023-05-01T10:58:23;97999.91;;;22.53
15360;BMP280;7779;49.596;11.070;2023-05-01T11:01:36;97998.16;;;22.43
15360;BMP280;7779;49.596;11.070;2023-05-01T11:09:41;97999.66;;;22.11
15360;BMP280;7779;49.596;11.070;2023-05-01T11:12:10;98015.72;;;21.97
15360;BMP280;7779;49.596;11.070;2023-05-01T11:22:54;98035.06;;;20.87
15360;BMP280;7779;49.596;11.070;2023-05-01T11:25:23;98029.56;;;20.58
15360;BMP280;7779;49.596;11.070;2023-05-01T11:27:58;98041.03;;;20.29
15360;BMP280;7779;49.596;11.070;2023-05-01T11:30:24;98044.84;;;20.00
15360;BMP280;7779;49.596;11.070;2023-05-01T11:32:51;98039.34;;;19.75
15360;BMP280;7779;49.596;11.070;2023-05-01T11:35:23;98046.53;;;19.50
15360;BMP280;7779;49.596;11.070;2023-05-01T11:37:51;98053.72;;;19.25
15360;BMP280;7779;49.596;11.070;2023-05-01T11:40:34;98055.84;;;19.03
15360;BMP280;7779;49.596;11.070;2023-05-01T11:43:05;98046.94;;;18.83
15360;BMP280;7779;49.596;11.070;2023-05-01T11:45:33;98051.72;;;18.68
15360;BMP280;7779;49.596;11.070;2023-05-01T11:47:59;98062.44;;;18.54
15360;BMP280;7779;49.596;11.070;2023-05-01T11:50:37;98058.72;;;18.40
15360;BMP280;7779;49.596;11.070;2023-05-01T11:53:10;98063.59;;;18.31
15360;BMP280;7779;49.596;11.070;2023-05-01T11:55:40;98072.78;;;18.25
15360;BMP280;7779;49.596;11.070;2023-05-01T11:58:06;98067.50;;;18.16
15360;BMP280;7779;49.596;11.070;2023-05-01T12:00:37;98067.38;;;18.10
15360;BMP280;7779;49.596;11.070;2023-05-01T12:03:11;98071.34;;;18.02
15360;BMP280;7779;49.596;11.070;2023-05-01T12:05:39;98068.59;;;17.93
15360;BMP280;7779;49.596;11.070;2023-05-01T12:08:16;98071.00;;;17.87
15360;BMP280;7779;49.596;11.070;2023-05-01T12:10:50;98072.53;;;17.81
15360;BMP280;7779;49.596;11.070;2023-05-01T12:13:17;98071.53;;;17.74
15360;BMP280;7779;49.596;11.070;2023-05-01T12:15:46;98075.56;;;17.66
15360;BMP280;7779;49.596;11.070;2023-05-01T12:18:14;98077.91;;;17.59
15360;BMP280;7779;49.596;11.070;2023-05-01T12:20:46;98079.47;;;17.54
15360;BMP280;7779;49.596;11.070;2023-05-01T12:23:14;98073.47;;;17.51
15360;BMP280;7779;49.596;11.070;2023-05-01T12:25:44;98070.88;;;17.48
15360;BMP280;7779;49.596;11.070;2023-05-01T12:28:18;98078.38;;;17.45
15360;BMP280;7779;49.596;11.070;2023-05-01T12:30:46;98086.72;;;17.41
15360;BMP280;7779;49.596;11.070;2023-05-01T12:33:18;98083.28;;;17.39
15360;BMP280;7779;49.596;11.070;2023-05-01T12:35:47;98088.31;;;17.37
15360;BMP280;7779;49.596;11.070;2023-05-01T12:40:56;98075.69;;;17.39
15360;BMP280;7779;49.596;11.070;2023-05-01T12:43:35;98071.53;;;17.41
15360;BMP280;7779;49.596;11.070;2023-05-01T12:46:03;98077.47;;;17.43
15360;BMP280;7779;49.596;11.070;2023-05-01T12:48:30;98070.88;;;17.48
15360;BMP280;7779;49.596;11.070;2023-05-01T12:50:59;98075.13;;;17.50
15360;BMP280;7779;49.596;11.070;2023-05-01T12:53:27;98069.31;;;17.53
15360;BMP280;7779;49.596;11.070;2023-05-01T12:55:57;98069.38;;;17.56
15360;BMP280;7779;49.596;11.070;2023-05-01T12:58:34;98067.00;;;17.61
15360;BMP280;7779;49.596;11.070;2023-05-01T13:01:00;98062.97;;;17.69
15360;BMP280;7779;49.596;11.070;2023-05-01T13:03:28;98067.41;;;17.79
15360;BMP280;7779;49.596;11.070;2023-05-01T13:06:02;98062.56;;;17.87
15360;BMP280;7779;49.596;11.070;2023-05-01T13:08:31;98070.38;;;17.96
15360;BMP280;7779;49.596;11.070;2023-05-01T13:11:12;98069.66;;;18.01
15360;BMP280;7779;49.596;11.070;2023-05-01T13:13:39;98062.09;;;18.04
15360;BMP280;7779;49.596;11.070;2023-05-01T13:16:15;98060.56;;;18.09
15360;BMP280;7779;49.596;11.070;2023-05-01T13:18:50;98052.22;;;18.13
15360;BMP280;7779;49.596;11.070;2023-05-01T13:21:21;98056.56;;;18.18
15360;BMP280;7779;49.596;11.070;2023-05-01T13:23:58;98054.94;;;18.22
15360;BMP280;7779;49.596;11.070;2023-05-01T13:26:30;98051.56;;;18.21
15360;BMP280;7779;49.596;11.070;2023-05-01T13:28:59;98057.41;;;18.19
15360;BMP280;7779;49.596;11.070;2023-05-01T13:31:26;98058.22;;;18.16
15360;BMP280;7779;49.596;11.070;2023-05-01T13:33:54;98056.50;;;18.17
15360;BMP280;7779;49.596;11.070;2023-05-01T13:36:22;98062.44;;;18.16
15360;BMP280;7779;49.596;11.070;2023-05-01T13:38:53;98057.28;;;18.13
15360;BMP280;7779;49.596;11.070;2023-05-01T13:41:22;98058.03;;;18.09
15360;BMP280;7779;49.596;11.070;2023-05-01T13:43:52;98056.22;;;18.05
15360;BMP280;7779;49.596;11.070;2023-05-01T13:46:20;98059.44;;;17.98
15360;BMP280;7779;49.596;11.070;2023-05-01T13:48:46;98066.16;;;17.96
15360;BMP280;7779;49.596;11.070;2023-05-01T13:51:21;98061.00;;;17.93
15360;BMP280;7779;49.596;11.070;2023-05-01T13:53:47;98060.88;;;17.87
15360;BMP280;7779;49.596;11.070;2023-05-01T13:56:13;98066.66;;;17.82
15360;BMP280;7779;49.596;11.070;2023-05-01T13:58:40;98058.03;;;17.75
15360;BMP280;7779;49.596;11.070;2023-05-01T14:01:20;98054.56;;;17.70
15360;BMP280;7779;49.596;11.070;2023-05-01T14:03:48;98064.63;;;17.67
15360;BMP280;7779;49.596;11.070;2023-05-01T14:06:17;98062.00;;;17.64
15360;BMP280;7779;49.596;11.070;2023-05-01T14:08:44;98053.59;;;17.65
15360;BMP280;7779;49.596;11.070;2023-05-01T14:11:12;98062.88;;;17.66
15360;BMP280;7779;49.596;11.070;2023-05-01T14:13:46;98063.78;;;17.68
15360;BMP280;7779;49.596;11.070;2023-05-01T14:16:24;98053.69;;;17.70
15360;BMP280;7779;49.596;11.070;2023-05-01T14:18:54;98062.97;;;17.69
15360;BMP280;7779;49.596;11.070;2023-05-01T14:21:24;98055.38;;;17.69
15360;BMP280;7779;49.596;11.070;2023-05-01T14:23:53;98053.69;;;17.70
15360;BMP280;7779;49.596;11.070;2023-05-01T14:26:20;98054.56;;;17.70
15360;BMP280;7779;49.596;11.070;2023-05-01T14:28:48;98052.03;;;17.70
15360;BMP280;7779;49.596;11.070;2023-05-01T14:31:25;98061.31;;;17.71
15360;BMP280;7779;49.596;11.070;2023-05-01T14:34:01;98058.78;;;17.71
15360;BMP280;7779;49.596;11.070;2023-05-01T14:36:29;98051.09;;;17.68
15360;BMP280;7779;49.596;11.070;2023-05-01T14:39:02;98054.53;;;17.69
15360;BMP280;7779;49.596;11.070;2023-05-01T14:41:28;98054.53;;;17.69
15360;BMP280;7779;49.596;11.070;2023-05-01T14:43:55;98054.53;;;17.69
15360;BMP280;7779;49.596;11.070;2023-05-01T14:46:32;98052.03;;;17.70
15360;BMP280;7779;49.596;11.070;2023-05-01T14:48:59;98058.75;;;17.70